Latest Weather Observations for Archerfield

IDQ60801

Issued at 10:32 pm EST Monday 30 May 2016 (issued every 30 minutes, with the page automatically refreshed every 10 minutes)

About weather observations | Map of weather stations | Latest weather observations for QLD | Other Formats
Station Details ID: 040211 Name: ARCHERFIELD AIRPORT Lat: -27.57 Lon: 153.01 Height: 12.5 m
Data from the previous 72 hours. | See also: Recent months at Archerfield
Date/Time
EST
Temp
°C
App
Temp
°C
Dew
Point
Rel
Hum
%
Delta-T
°C
Wind Press
QNH
hPa
Press
MSL
hPa
Rain
since 9 am
mm
Dir
 
Spd
km/h
Gust
km/h
Spd
kts
Gust
kts
30/10:30pm 9.3 7.7 6.2 81 1.4 SSW 4 7 2 4 1024.9 1024.9 0.0
30/10:00pm 10.9 8.4 8.1 83 1.4 S 11 13 6 7 1024.8 1024.8 0.0
30/09:30pm 10.2 8.2 6.2 76 1.9 SSW 6 9 3 5 1024.6 1024.6 0.0
30/09:00pm 12.2 10.1 8.1 76 2.0 SSW 9 11 5 6 1024.5 1024.5 0.0
30/08:30pm 12.8 11.5 7.7 71 2.5 S 4 9 2 5 1024.4 1024.4 0.0
30/08:00pm 13.8 13.4 8.4 70 2.7 CALM 0 0 0 0 1024.1 1024.1 0.0
30/07:30pm 14.6 13.1 8.3 66 3.2 E 6 7 3 4 1023.8 1023.8 0.0
30/07:00pm 16.3 14.3 8.8 61 3.8 E 9 11 5 6 1023.5 1023.5 0.0
30/06:30pm 17.3 15.3 8.7 57 4.4 E 9 11 5 6 1023.3 1023.3 0.0
30/06:00pm 17.1 15.1 8.5 57 4.4 ENE 9 13 5 7 1023.1 1023.1 0.0
30/05:30pm 18.2 15.7 8.2 52 5.1 ENE 11 17 6 9 1022.6 1022.5 0.0
30/05:00pm 18.6 15.1 7.4 48 5.6 NE 15 17 8 9 1022.4 1022.3 0.0
30/04:30pm 20.4 16.6 7.7 44 6.5 NE 17 22 9 12 1022.2 1022.1 0.0
30/04:00pm 21.6 18.2 7.8 41 7.1 NE 15 22 8 12 1021.8 1021.7 0.0
30/03:30pm 22.1 18.3 7.5 39 7.6 NE 17 22 9 12 1021.5 1021.4 0.0
30/03:00pm 22.8 19.4 7.8 38 7.8 ENE 15 24 8 13 1021.2 1021.1 0.0
30/02:30pm 23.0 19.6 7.5 37 8.1 NE 15 20 8 11 1021.4 1021.3 0.0
30/02:00pm 23.3 19.9 7.8 37 8.1 ENE 15 22 8 12 1021.3 1021.2 0.0
30/01:30pm 22.4 20.2 6.2 35 8.2 E 7 13 4 7 1021.4 1021.3 0.0
30/01:00pm 22.9 20.3 6.2 34 8.5 NNE 9 20 5 11 1021.5 1021.4 0.0
30/12:30pm 21.8 19.8 6.9 38 7.6 NE 7 20 4 11 1021.8 1021.7 0.0
30/12:00pm 21.2 19.2 8.5 44 6.6 SE 9 15 5 8 1022.4 1022.3 0.0
30/11:30am 20.6 18.8 7.9 44 6.6 W 7 9 4 5 1023.2 1023.2 0.0
30/11:00am 19.6 17.1 6.7 43 6.5 WSW 9 13 5 7 1023.8 1023.8 0.0
30/10:30am 17.9 15.4 6.4 47 5.7 SW 9 15 5 8 1023.8 1023.8 0.0
30/10:00am 16.8 13.5 6.3 50 5.1 WSW 13 17 7 9 1024.1 1024.1 0.0
30/09:30am 15.6 11.9 6.1 53 4.6 SW 15 19 8 10 1024.3 1024.3 0.0
30/09:00am 14.6 10.4 5.9 56 4.1 WSW 17 20 9 11 1024.2 1024.2 0.0
30/08:30am 13.4 10.0 6.0 61 3.5 WSW 13 19 7 10 1024.0 1024.0 0.0
30/08:00am 11.5 8.9 6.2 70 2.5 SSW 9 13 5 7 1023.7 1023.7 0.0
30/07:30am 9.7 7.3 5.3 74 2.0 S 7 9 4 5 1023.5 1023.5 0.0
30/07:00am 8.0 5.1 4.8 80 1.4 S 9 9 5 5 1023.0 1022.9 0.0
30/06:30am 7.0 4.0 4.0 81 1.3 S 9 11 5 6 1022.6 1022.5 0.0
30/06:00am 7.5 4.9 4.1 79 1.5 S 7 9 4 5 1022.3 1022.2 0.0
30/05:30am 8.0 5.4 4.2 77 1.7 SSW 7 9 4 5 1021.8 1021.7 0.0
30/05:00am 8.2 5.7 4.6 78 1.6 SSW 7 9 4 5 1021.5 1021.4 0.0
30/04:30am 6.4 3.8 3.4 81 1.3 S 6 7 3 4 1021.2 1021.1 0.0
30/04:00am 8.3 5.4 4.5 77 1.7 S 9 11 5 6 1021.0 1020.9 0.0
30/03:30am 8.0 4.6 4.2 77 1.7 SSW 11 15 6 8 1020.9 1020.8 0.0
30/03:00am 7.8 4.8 4.2 78 1.6 S 9 11 5 6 1020.8 1020.7 0.0
30/02:30am 6.3 3.2 1.6 72 1.9 SSW 7 9 4 5 1020.6 1020.5 0.0
30/02:00am 8.7 5.0 4.7 76 1.8 S 13 13 7 7 1020.5 1020.4 0.0
30/01:30am 8.2 4.6 4.8 79 1.5 S 13 13 7 7 1020.5 1020.4 0.0
30/01:00am 8.4 5.3 5.5 82 1.3 S 11 13 6 7 1020.4 1020.3 0.0
30/12:30am 9.7 7.0 5.7 76 1.8 SSE 9 11 5 6 1020.4 1020.3 0.0
30/12:00am 9.4 6.3 5.6 77 1.7 SSE 11 13 6 7 1020.4 1020.3 0.0
 
Date/Time
EST
Temp
°C
App
Temp
°C
Dew
Point
Rel
Hum
%
Delta-T
°C
Wind Press
QNH
hPa
Press
MSL
hPa
Rain
since 9 am
mm
Dir
 
Spd
km/h
Gust
km/h
Spd
kts
Gust
kts
29/11:30pm 9.8 7.1 5.4 74 2.0 WSW 9 11 5 6 1020.5 1020.4 0.0
29/11:00pm 8.4 5.7 5.7 83 1.2 S 9 11 5 6 1020.8 1020.7 0.0
29/10:30pm 10.2 7.8 7.1 81 1.5 SE 9 9 5 5 1020.6 1020.5 0.0
29/10:00pm 9.5 7.5 6.4 81 1.4 WSW 6 7 3 4 1020.4 1020.3 0.0
29/09:30pm 9.4 7.0 5.2 75 1.9 S 7 9 4 5 1020.5 1020.4 0.0
29/09:00pm 11.5 9.6 7.4 76 2.0 SSE 7 9 4 5 1020.3 1020.2 0.0
29/08:30pm 11.9 11.3 7.2 73 2.3 CALM 0 6 0 3 1020.0 1019.9 0.0
29/08:00pm 13.2 12.5 6.8 65 3.1 CALM 0 0 0 0 1019.8 1019.7 0.0
29/07:30pm 13.8 13.1 6.9 63 3.3 CALM 0 0 0 0 1019.5 1019.4 0.0
29/07:00pm 15.9 14.1 7.9 59 4.0 E 7 11 4 6 1019.1 1019.0 0.0
29/06:30pm 15.9 13.7 7.7 58 4.1 E 9 13 5 7 1018.8 1018.7 0.0
29/06:00pm 14.4 11.9 6.5 59 3.8 ENE 9 11 5 6 1018.4 1018.3 0.0
29/05:30pm 17.0 13.9 7.1 52 4.9 E 13 19 7 10 1017.8 1017.7 0.0
29/05:00pm 18.0 14.8 6.8 48 5.6 ENE 13 17 7 9 1017.3 1017.2 0.0
29/04:30pm 21.1 16.9 1.9 28 8.9 N 13 17 7 9 1016.8 1016.7 0.0
29/04:00pm 23.3 20.3 1.0 23 10.3 NW 6 13 3 7 1016.5 1016.4 0.0
29/03:30pm 22.8 18.8 0.6 23 10.2 W 11 15 6 8 1016.2 1016.1 0.0
29/03:00pm 23.0 20.0 1.9 25 9.9 WNW 7 13 4 7 1016.0 1015.9 0.0
29/02:30pm 22.8 19.4 1.8 25 9.8 WNW 9 17 5 9 1016.0 1015.9 0.0
29/02:00pm 22.3 18.5 1.9 26 9.5 NW 11 19 6 10 1016.1 1016.0 0.0
29/01:30pm 21.8 17.4 2.5 28 9.1 WSW 15 32 8 17 1016.0 1015.9 0.0
29/01:00pm 21.8 18.0 2.0 27 9.2 W 11 20 6 11 1016.1 1016.0 0.0
29/12:30pm 21.9 18.6 2.6 28 9.1 WSW 9 19 5 10 1016.5 1016.4 0.0
29/12:00pm 21.3 17.4 3.5 31 8.5 NW 13 20 7 11 1016.9 1016.8 0.0
29/11:30am 20.0 16.5 3.3 33 7.9 WNW 11 17 6 9 1017.6 1017.5 0.0
29/11:00am 19.0 15.1 3.6 36 7.2 W 13 22 7 12 1018.0 1017.9 0.0
29/10:30am 18.2 15.0 3.3 37 6.9 SW 9 15 5 8 1018.2 1018.1 0.0
29/10:00am 17.1 13.2 3.4 40 6.3 SW 13 20 7 11 1018.4 1018.3 0.0
29/09:30am 16.5 12.2 3.2 41 6.1 W 15 20 8 11 1018.8 1018.7 0.0
29/09:00am 15.8 11.2 3.6 44 5.6 W 17 24 9 13 1019.0 1018.9 0.0
29/08:30am 15.4 11.0 4.5 48 5.1 W 17 22 9 12 1018.6 1018.5 0.0
29/08:00am 14.3 10.2 4.3 51 4.6 W 15 22 8 12 1018.4 1018.3 0.0
29/07:30am 13.1 8.6 4.3 55 4.0 W 17 22 9 12 1018.0 1017.9 0.0
29/07:00am 11.2 7.7 3.7 60 3.3 SW 11 15 6 8 1017.6 1017.5 0.0
29/06:30am 11.2 6.6 3.7 60 3.3 W 17 22 9 12 1017.0 1016.9 0.0
29/06:00am 11.0 6.4 3.8 61 3.2 W 17 22 9 12 1016.8 1016.7 0.0
29/05:30am 11.2 6.0 3.7 60 3.3 W 20 24 11 13 1016.4 1016.3 0.0
29/05:00am 11.0 6.0 3.8 61 3.2 W 19 22 10 12 1016.2 1016.1 0.0
29/04:30am 10.8 6.6 3.8 62 3.1 WSW 15 19 8 10 1016.0 1015.9 0.0
29/04:00am 10.9 6.5 2.7 57 3.5 SW 15 19 8 10 1016.2 1016.1 0.0
29/03:30am 12.3 7.6 3.3 54 4.0 WSW 17 22 9 12 1015.9 1015.8 0.0
29/03:00am 12.5 7.2 3.2 53 4.1 WSW 20 24 11 13 1015.9 1015.8 0.0
29/02:30am 12.0 8.7 2.7 53 4.1 WSW 9 13 5 7 1015.9 1015.8 0.0
29/02:00am 12.5 8.5 2.7 51 4.3 W 13 17 7 9 1015.9 1015.8 0.0
29/01:30am 12.7 7.4 3.1 52 4.2 W 20 24 11 13 1015.6 1015.5 0.0
29/01:00am 12.0 7.2 2.7 53 4.0 WNW 17 22 9 12 1015.6 1015.5 0.0
29/12:30am 10.2 7.2 1.8 56 3.5 NNW 7 9 4 5 1015.8 1015.7 0.0
29/12:00am 11.7 7.6 2.5 53 4.0 WSW 13 17 7 9 1015.1 1015.0 0.0
 
Date/Time
EST
Temp
°C
App
Temp
°C
Dew
Point
Rel
Hum
%
Delta-T
°C
Wind Press
QNH
hPa
Press
MSL
hPa
Rain
since 9 am
mm
Dir
 
Spd
km/h
Gust
km/h
Spd
kts
Gust
kts
28/11:30pm 13.1 9.4 2.4 48 4.7 W 11 15 6 8 1015.3 1015.2 0.0
28/11:00pm 14.2 10.1 2.1 44 5.3 WSW 13 19 7 10 1015.2 1015.1 0.0
28/10:30pm 13.7 10.4 2.3 46 5.0 W 9 15 5 8 1015.4 1015.3 0.0
28/10:00pm 14.6 10.4 1.8 42 5.6 NW 13 19 7 10 1015.3 1015.2 0.0
28/09:30pm 15.1 11.8 2.3 42 5.7 WNW 9 13 5 7 1015.2 1015.1 0.0
28/09:00pm 15.4 10.9 2.2 41 5.9 WNW 15 22 8 12 1015.0 1014.9 0.0
28/08:30pm 16.0 11.9 2.1 39 6.2 W 13 19 7 10 1015.0 1014.9 0.0
28/08:00pm 16.7 12.2 2.3 38 6.5 W 15 20 8 11 1014.4 1014.3 0.0
28/07:30pm 17.4 12.6 2.6 37 6.7 W 17 24 9 13 1014.2 1014.1 0.0
28/07:00pm 17.4 13.0 2.6 37 6.7 W 15 19 8 10 1013.8 1013.7 0.0
28/06:30pm 18.7 13.5 2.5 34 7.4 W 19 28 10 15 1013.3 1013.2 0.0
28/06:00pm 19.3 13.5 2.2 32 7.8 W 22 28 12 15 1012.9 1012.8 0.0
28/05:30pm 20.0 12.3 2.4 31 8.2 W 32 43 17 23 1012.3 1012.2 0.0
28/05:02pm 20.6 13.2 2.0 29 8.6 W 30 48 16 26 1011.7 1011.6 0.0
28/05:00pm 20.4 13.5 2.3 30 8.4 W 28 43 15 23 1011.6 1011.5 0.0
28/04:30pm 21.5 13.7 2.7 29 8.9 W 33 54 18 29 1011.0 1010.9 0.0
28/04:29pm 21.5 13.7 2.7 29 8.9 W 33 54 18 29 1011.0 1010.9 0.0
28/04:00pm 22.0 13.6 3.6 30 8.9 W 37 48 20 26 1010.5 1010.4 0.0
28/03:30pm 22.3 13.4 2.9 28 9.2 WNW 39 59 21 32 1010.1 1010.0 0.0
28/03:03pm 22.5 13.6 3.1 28 9.3 W 39 57 21 31 1010.2 1010.1 0.0
28/03:00pm 22.7 14.2 3.3 28 9.3 WSW 37 52 20 28 1010.2 1010.1 0.0
28/02:30pm 23.0 14.6 3.5 28 9.4 W 37 54 20 29 1010.1 1010.0 0.0
28/02:00pm 23.2 15.7 3.7 28 9.5 W 32 65 17 35 1010.0 1009.9 0.0
28/01:32pm 22.9 14.6 4.4 30 9.1 W 37 56 20 30 1010.0 1009.9 0.0
28/01:30pm 22.6 13.8 3.7 29 9.2 W 39 56 21 30 1010.1 1010.0 0.0
28/01:15pm 22.6 14.2 3.7 29 9.2 W 37 56 20 30 1010.0 1009.9 0.0
28/01:00pm 22.7 14.4 4.2 30 9.1 W 37 52 20 28 1010.2 1010.1 0.0
28/12:30pm 22.5 14.6 4.5 31 8.8 W 35 46 19 25 1010.6 1010.5 0.0
28/12:13pm 22.5 15.7 5.0 32 8.7 WSW 30 48 16 26 1010.7 1010.6 0.0
28/12:00pm 21.9 15.0 4.5 32 8.5 W 30 43 16 23 1011.0 1010.9 0.0
28/11:37am 22.0 15.9 4.6 32 8.5 WSW 26 46 14 25 1011.0 1010.9 0.0
28/11:30am 21.5 14.7 5.0 34 8.1 W 30 41 16 22 1011.3 1011.2 0.0
28/11:00am 21.0 14.9 4.6 34 8.0 W 26 37 14 20 1011.8 1011.7 0.0
28/10:30am 19.4 14.5 5.1 39 7.0 WSW 20 32 11 17 1012.5 1012.4 0.0
28/10:00am 18.4 14.5 5.3 42 6.4 W 15 26 8 14 1013.3 1013.2 0.0
28/09:30am 18.0 13.7 5.2 43 6.2 W 17 24 9 13 1013.4 1013.3 0.0
28/09:00am 16.9 12.2 5.2 46 5.6 WSW 19 24 10 13 1013.6 1013.5 0.0
28/08:30am 16.3 11.5 5.6 49 5.1 WNW 20 26 11 14 1013.5 1013.4 0.0
28/08:00am 14.7 12.4 5.8 55 4.2 SW 7 11 4 6 1013.4 1013.3 0.0
28/07:30am 12.9 10.6 5.6 61 3.4 SSW 7 7 4 4 1013.2 1013.1 0.0
28/07:00am 11.4 8.1 4.8 64 3.0 W 11 15 6 8 1012.8 1012.7 0.0
28/06:30am 11.6 7.6 4.8 63 3.1 W 15 19 8 10 1012.6 1012.5 0.0
28/06:00am 12.2 8.6 4.9 61 3.3 WSW 13 15 7 8 1012.1 1012.0 0.0
28/05:30am 13.0 8.2 4.7 57 3.8 W 19 22 10 12 1011.9 1011.8 0.0
28/05:00am 12.8 8.1 5.0 59 3.6 WNW 19 20 10 11 1011.8 1011.7 0.0
28/04:30am 12.1 7.7 5.0 62 3.3 W 17 20 9 11 1011.6 1011.5 0.0
28/04:00am 11.3 7.0 5.2 66 2.8 W 17 20 9 11 1011.8 1011.7 0.0
28/03:30am 10.9 7.3 4.8 66 2.8 W 13 17 7 9 1011.7 1011.6 0.0
28/03:00am 12.4 8.9 5.3 62 3.3 WSW 13 17 7 9 1011.5 1011.4 0.0
28/02:30am 12.2 8.3 5.4 63 3.2 WSW 15 19 8 10 1011.3 1011.2 0.0
28/02:00am 12.5 8.6 5.4 62 3.3 SSW 15 17 8 9 1011.2 1011.1 0.0
28/01:30am 12.5 9.7 5.0 60 3.5 SSW 9 13 5 7 1011.4 1011.3 0.0
28/01:00am 12.8 8.6 5.7 62 3.3 W 17 20 9 11 1011.3 1011.2 0.0
28/12:30am 13.5 10.0 5.4 58 3.8 WSW 13 19 7 10 1011.0 1010.9 0.0
28/12:00am 13.9 10.5 5.8 58 3.8 WSW 13 17 7 9 1010.9 1010.8 0.0
 
Date/Time
EST
Temp
°C
App
Temp
°C
Dew
Point
Rel
Hum
%
Delta-T
°C
Wind Press
QNH
hPa
Press
MSL
hPa
Rain
since 9 am
mm
Dir
 
Spd
km/h
Gust
km/h
Spd
kts
Gust
kts
27/11:30pm 13.1 9.3 6.0 62 3.4 W 15 19 8 10 1010.9 1010.8 0.0
27/11:00pm 14.8 12.3 6.6 58 4.0 WNW 9 13 5 7 1011.2 1011.1 0.0

Other Formats:

Comma delimited format used in spreadsheet applications
http://www.bom.gov.au/fwo/IDQ60801/IDQ60801.94575.axf

JavaScript Object Notation format (JSON) in row-major order
http://www.bom.gov.au/fwo/IDQ60801/IDQ60801.94575.json